1856 NOT_NAMED (1856032S17058)


IBTrACS version v04r00. Visit IBTrACS website for data access.
Please direct all questions to the IBTrACS Q and A forum

Storm track - Intensity - Wind Radii - Intensity Data - Source Data - All data

Summary Information

Storm ID 1856032S17058
Start Feb 1 06Z
End Feb 8 06Z
ATCF IDs
Track status Best track data.

Storm track plot

Map of storm track

Intensity plots

No Intensity information for this storm


Radial wind information

No radial wind information for this storm


Position and Intensity Table

BASIN ISO_TIME_________ NATURE LAT LON
degrees north degrees east
SI 1856-02-01 06:00:00 NR -16.60 58.35
SI 09:00:00 NR -16.79 58.18
SI 12:00:00 NR -16.98 58.02
SI 15:00:00 NR -17.17 57.86
SI 18:00:00 NR -17.34 57.71
SI 21:00:00 NR -17.49 57.56
SI 1856-02-02 00:00:00 NR -17.64 57.43
SI 03:00:00 NR -17.79 57.31
SI 06:00:00 NR -17.95 57.20
SI 09:00:00 NR -18.13 57.10
SI 12:00:00 NR -18.32 57.02
SI 15:00:00 NR -18.51 56.95
SI 18:00:00 NR -18.71 56.89
SI 21:00:00 NR -18.90 56.85
SI 1856-02-03 00:00:00 NR -19.09 56.81
SI 03:00:00 NR -19.29 56.80
SI 06:00:00 NR -19.50 56.80
SI 09:00:00 NR -19.74 56.81
SI 12:00:00 NR -19.98 56.83
SI 15:00:00 NR -20.23 56.88
SI 18:00:00 NR -20.48 56.93
SI 21:00:00 NR -20.72 56.98
SI 1856-02-04 00:00:00 NR -20.96 57.04
SI 03:00:00 NR -21.18 57.11
SI 06:00:00 NR -21.40 57.20
SI 09:00:00 NR -21.60 57.29
SI 12:00:00 NR -21.78 57.38
SI 15:00:00 NR -21.96 57.49
SI 18:00:00 NR -22.13 57.60
SI 21:00:00 NR -22.31 57.72
SI 1856-02-05 00:00:00 NR -22.48 57.84
SI 03:00:00 NR -22.64 57.96
SI 06:00:00 NR -22.80 58.10
SI 09:00:00 NR -22.96 58.24
SI 12:00:00 NR -23.12 58.39
SI 15:00:00 NR -23.27 58.55
SI 18:00:00 NR -23.42 58.72
SI 21:00:00 NR -23.57 58.88
SI 1856-02-06 00:00:00 NR -23.71 59.05
SI 03:00:00 NR -23.85 59.24
SI 06:00:00 NR -24.00 59.45
SI 09:00:00 NR -24.17 59.69
SI 12:00:00 NR -24.34 59.96
SI 15:00:00 NR -24.51 60.24
SI 18:00:00 NR -24.67 60.52
SI 21:00:00 NR -24.81 60.79
SI 1856-02-07 00:00:00 NR -24.92 61.04
SI 03:00:00 NR -25.03 61.28
SI 06:00:00 NR -25.12 61.52
SI 09:00:00 NR -25.20 61.76
SI 12:00:00 NR -25.30 62.01
SI 15:00:00 NR -25.39 62.26
SI 18:00:00 NR -25.47 62.51
SI 21:00:00 NR -25.56 62.76
SI 1856-02-08 00:00:00 NR -25.64 63.01
SI 03:00:00 NR -25.72 63.25
SI 06:00:00 NR -25.80 63.50

Source Information

Agency Information
USA
TOKYO
CMA
HKO
NEWDELHI
REUNION WMO-Best-Tracks.txt:Line=108:xxxx856016
BOM
NADI
WELLINGTON
DS824
TD9636 cons_worldwide_trop_cyclone_18710101-19891231-005:Line=147
TD9635
NEUMANN
MLC

All available IBTrACS Data

SEASON BASIN SUBBASIN ISO_TIME_________ NATURE LAT LON WMO AGENCY DIST2LAND LANDFALL IFLAG USA SSHS REUNION LAT REUNION LON REUNION TYPE REUNION TNUM TD9636 LAT TD9636 LON TD9636 STAGE STORM SPEED STORM DIR
Year degrees north degrees east km km 1 degrees north degrees east 1 degrees north degrees east kts degrees
1856 SI MM 1856-02-01 06:00:00 NR -16.60 58.35 reunion 398 372 _____O____O___ -1 -15.80 59.10 99 9.90 -17.40 57.60 7 5 219
1856 SI MM 09:00:00 NR -16.79 58.18 372 348 _____P____P___ -1 -16.02 58.87 99 -17.56 57.50 7 5 219
1856 SI MM 12:00:00 NR -16.98 58.02 348 325 _____P____P___ -1 -16.25 58.65 99 -17.72 57.39 7 5 220
1856 SI MM 15:00:00 NR -17.17 57.86 325 313 _____P____P___ -1 -16.46 58.43 99 -17.87 57.29 7 5 220
1856 SI MM 18:00:00 NR -17.34 57.71 313 290 _____P____O___ -1 -16.67 58.21 99 -18.00 57.20 7 4 221
1856 SI MM 21:00:00 NR -17.49 57.56 290 279 _____P____P___ -1 -16.87 58.01 99 -18.11 57.11 7 4 221
1856 SI MM 1856-02-02 00:00:00 NR -17.64 57.43 279 258 _____P____P___ -1 -17.06 57.82 99 -18.22 57.03 7 4 219
1856 SI MM 03:00:00 NR -17.79 57.31 258 247 _____P____P___ -1 -17.24 57.65 99 -18.34 56.96 7 4 216
1856 SI MM 06:00:00 NR -17.95 57.20 reunion 248 227 _____O____O___ -1 -17.40 57.50 99 9.90 -18.50 56.90 7 4 211
1856 SI MM 09:00:00 NR -18.13 57.10 227 208 _____P____P___ -1 -17.54 57.37 99 -18.71 56.83 7 4 205
1856 SI MM 12:00:00 NR -18.32 57.02 208 186 _____P____P___ -1 -17.67 57.26 99 -18.96 56.78 7 4 201
1856 SI MM 15:00:00 NR -18.51 56.95 189 168 _____P____P___ -1 -17.80 57.16 99 -19.23 56.73 7 4 197
1856 SI MM 18:00:00 NR -18.71 56.89 168 148 _____P____O___ -1 -17.92 57.09 99 -19.50 56.70 7 4 194
1856 SI MM 21:00:00 NR -18.90 56.85 152 133 _____P____P___ -1 -18.05 57.02 99 -19.75 56.67 7 4 191
1856 SI MM 1856-02-03 00:00:00 NR -19.09 56.81 133 115 _____P____P___ -1 -18.18 56.97 99 -20.00 56.66 7 4 185
1856 SI MM 03:00:00 NR -19.29 56.80 115 99 _____P____P___ -1 -18.33 56.93 99 -20.25 56.66 7 4 0
1856 SI MM 06:00:00 NR -19.50 56.80 reunion 99 85 _____O____O___ -1 -18.50 56.90 99 9.90 -20.50 56.70 7 4 0
1856 SI MM 09:00:00 NR -19.74 56.81 85 71 _____P____P___ -1 -18.71 56.85 99 -20.76 56.77 7 5 175
1856 SI MM 12:00:00 NR -19.98 56.83 71 53 _____P____P___ -1 -18.95 56.81 99 -21.02 56.86 7 5 172
1856 SI MM 15:00:00 NR -20.23 56.88 53 41 _____P____P___ -1 -19.20 56.77 99 -21.26 56.98 7 5 170
1856 SI MM 18:00:00 NR -20.48 56.93 41 33 _____P____O___ -1 -19.45 56.75 99 -21.50 57.10 7 5 169
1856 SI MM 21:00:00 NR -20.72 56.98 38 38 _____P____P___ -1 -19.72 56.74 99 -21.72 57.21 7 5 168
1856 SI MM 1856-02-04 00:00:00 NR -20.96 57.04 64 59 _____P____P___ -1 -19.98 56.75 99 -21.93 57.34 7 5 165
1856 SI MM 03:00:00 NR -21.18 57.11 80 80 _____P____P___ -1 -20.25 56.77 99 -22.12 57.46 7 5 162
1856 SI MM 06:00:00 NR -21.40 57.20 reunion 101 101 _____O____O___ -1 -20.50 56.80 99 9.90 -22.30 57.60 7 4 159
1856 SI MM 09:00:00 NR -21.60 57.29 123 123 _____P____P___ -1 -20.72 56.83 99 -22.47 57.75 7 4 156
1856 SI MM 12:00:00 NR -21.78 57.38 145 145 _____P____P___ -1 -20.94 56.87 99 -22.62 57.90 7 4 153
1856 SI MM 15:00:00 NR -21.96 57.49 167 167 _____P____P___ -1 -21.15 56.93 99 -22.77 58.05 7 4 150
1856 SI MM 18:00:00 NR -22.13 57.60 178 178 _____P____O___ -1 -21.36 57.00 99 -22.90 58.20 7 4 149
1856 SI MM 21:00:00 NR -22.31 57.72 201 201 _____P____P___ -1 -21.57 57.09 99 -23.04 58.34 7 4 148
1856 SI MM 1856-02-05 00:00:00 NR -22.48 57.84 223 223 _____P____P___ -1 -21.78 57.21 99 -23.17 58.47 7 4 145
1856 SI MM 03:00:00 NR -22.64 57.96 236 236 _____P____P___ -1 -21.99 57.34 99 -23.29 58.59 7 4 143
1856 SI MM 06:00:00 NR -22.80 58.10 reunion 260 260 _____O____O___ -1 -22.20 57.50 99 9.90 -23.40 58.70 7 4 141
1856 SI MM 09:00:00 NR -22.96 58.24 284 284 _____P____P___ -1 -22.43 57.68 99 -23.49 58.81 7 4 139
1856 SI MM 12:00:00 NR -23.12 58.39 299 299 _____P____P___ -1 -22.67 57.88 99 -23.56 58.91 7 4 137
1856 SI MM 15:00:00 NR -23.27 58.55 326 326 _____P____P___ -1 -22.91 58.10 99 -23.63 59.00 7 4 135
1856 SI MM 18:00:00 NR -23.42 58.72 340 340 _____P____O___ -1 -23.15 58.34 99 -23.70 59.10 7 4 134
1856 SI MM 21:00:00 NR -23.57 58.88 367 367 _____P____P___ -1 -23.38 58.60 99 -23.76 59.17 7 4 133
1856 SI MM 1856-02-06 00:00:00 NR -23.71 59.05 385 385 _____P____P___ -1 -23.60 58.86 99 -23.82 59.25 7 4 131
1856 SI MM 03:00:00 NR -23.85 59.24 410 410 _____P____P___ -1 -23.81 59.13 99 -23.90 59.35 7 5 129
1856 SI MM 06:00:00 NR -24.00 59.45 reunion 432 432 _____O____O___ -1 -24.00 59.40 99 9.90 -24.00 59.50 7 5 127
1856 SI MM 09:00:00 NR -24.17 59.69 461 461 _____P____P___ -1 -24.18 59.66 99 -24.15 59.73 7 6 126
1856 SI MM 12:00:00 NR -24.34 59.96 486 486 _____P____P___ -1 -24.34 59.92 99 -24.34 60.00 7 6 124
1856 SI MM 15:00:00 NR -24.51 60.24 515 515 _____P____P___ -1 -24.49 60.18 99 -24.52 60.30 7 6 123
1856 SI MM 18:00:00 NR -24.67 60.52 550 550 _____P____O___ -1 -24.63 60.44 99 -24.70 60.60 7 6 121
1856 SI MM 21:00:00 NR -24.81 60.79 576 576 _____P____P___ -1 -24.76 60.71 99 -24.85 60.87 7 5 119
1856 SI MM 1856-02-07 00:00:00 NR -24.92 61.04 596 596 _____P____P___ -1 -24.88 60.97 99 -24.98 61.13 7 5 116
1856 SI MM 03:00:00 NR -25.03 61.28 623 623 _____P____P___ -1 -24.99 61.24 99 -25.09 61.37 7 5 114
1856 SI MM 06:00:00 NR -25.12 61.52 reunion 644 644 _____O____O___ -1 -25.10 61.50 99 9.90 -25.20 61.60 7 5 112
1856 SI MM 09:00:00 NR -25.20 61.76 672 672 _____P________ -1 -25.20 61.76 99 7 5 111
1856 SI MM 12:00:00 NR -25.30 62.01 693 693 _____P________ -1 -25.30 62.01 99 7 5 112
1856 SI MM 15:00:00 NR -25.39 62.26 722 722 _____P________ -1 -25.39 62.26 99 7 5 112
1856 SI MM 18:00:00 NR -25.47 62.51 743 743 _____P________ -1 -25.47 62.51 99 5 111
1856 SI MM 21:00:00 NR -25.56 62.76 772 772 _____P________ -1 -25.56 62.76 99 5 110
1856 SI MM 1856-02-08 00:00:00 NR -25.64 63.01 786 786 _____P________ -1 -25.64 63.01 99 5 110
1856 SI MM 03:00:00 NR -25.72 63.25 815 815 _____P________ -1 -25.72 63.25 99 5 110
1856 SI MM 06:00:00 NR -25.80 63.50 reunion 837 _____O________ -1 -25.80 63.50 99 9.90 5 110